Time;durP1;ratioP1;P1;durP2;ratioP2;P2;SDS_P1;SDS_P2;PMS_P1;PMS_P2;Temp;Humidity;BMP_temperature;BMP_pressure;BME280_temperature;BME280_humidity;BME280_pressure;Samples;Min_cycle;Max_cycle;Signal;HPM_P1;HPM_P2
2021/01/26 00:00:39;;;;;;;;;;;1.30;92.70;;;;;;5036002;28;19992;-77
2021/01/26 00:03:05;;;;;;;;;;;1.30;92.80;;;;;;5036341;28;19959;-76
2021/01/26 00:05:30;;;;;;;;;;;1.30;92.70;;;;;;5037278;28;19905;-76
2021/01/26 00:07:57;;;;;;;;;;;1.30;92.70;;;;;;5040195;28;19916;-76
2021/01/26 00:10:22;;;;;;;;;;;1.30;92.70;;;;;;5034845;28;20328;-76
2021/01/26 00:12:48;;;;;;;;;;;1.30;92.70;;;;;;5052903;28;19912;-76
2021/01/26 00:15:14;;;;;;;;;;;1.30;92.70;;;;;;5033137;28;19966;-75
2021/01/26 00:17:39;;;;;;;;;;;1.30;92.80;;;;;;5018182;28;20509;-77
2021/01/26 00:20:06;;;;;;;;;;;1.30;92.80;;;;;;5039275;28;19909;-78
2021/01/26 00:22:32;;;;;;;;;;;1.30;92.80;;;;;;5035359;28;19908;-76
2021/01/26 00:24:57;;;;;;;;;;;1.30;92.70;;;;;;5033262;28;19916;-76
2021/01/26 00:27:23;;;;;;;;;;;1.30;92.90;;;;;;5040384;28;19908;-76
2021/01/26 00:29:49;;;;;;;;;;;1.30;92.90;;;;;;5016853;28;19909;-76
2021/01/26 00:32:14;;;;;;;;;;;1.30;92.80;;;;;;5034040;28;19949;-76
2021/01/26 00:34:39;;;;;;;;;;;1.30;92.80;;;;;;5032519;28;19912;-76
2021/01/26 00:37:05;;;;;;;;;;;1.30;92.80;;;;;;5033792;28;19909;-76
2021/01/26 00:39:31;;;;;;;;;;;1.30;92.90;;;;;;5042435;28;19913;-76
2021/01/26 00:41:56;;;;;;;;;;;1.30;92.90;;;;;;5031680;28;19913;-76
2021/01/26 00:44:22;;;;;;;;;;;1.30;92.70;;;;;;5001678;28;19916;-76
2021/01/26 00:46:47;;;;;;;;;;;1.30;93.00;;;;;;5034832;28;20335;-76
2021/01/26 00:49:13;;;;;;;;;;;1.30;92.80;;;;;;5023289;28;20360;-76
2021/01/26 00:51:38;;;;;;;;;;;1.30;92.80;;;;;;5036536;28;19935;-76
2021/01/26 00:54:04;;;;;;;;;;;1.30;92.30;;;;;;5042704;28;19988;-76
2021/01/26 00:56:30;;;;;;;;;;;1.30;92.80;;;;;;5034786;28;19909;-76
2021/01/26 00:58:56;;;;;;;;;;;1.30;93.00;;;;;;5020175;28;19905;-76
2021/01/26 01:01:21;;;;;;;;;;;1.30;92.50;;;;;;5033754;28;19975;-76
2021/01/26 01:03:48;;;;;;;;;;;1.30;92.60;;;;;;5035831;28;20423;-76
2021/01/26 01:06:14;;;;;;;;;;;1.30;92.10;;;;;;5033777;28;19909;-76
2021/01/26 01:08:39;;;;;;;;;;;1.20;92.60;;;;;;5038391;28;19904;-76
2021/01/26 01:11:05;;;;;;;;;;;1.20;92.40;;;;;;5037873;28;19959;-76
2021/01/26 01:13:30;;;;;;;;;;;1.20;92.80;;;;;;5050786;28;19916;-76
2021/01/26 01:15:56;;;;;;;;;;;1.20;92.90;;;;;;5044251;28;20404;-76
2021/01/26 01:18:22;;;;;;;;;;;1.20;92.50;;;;;;5037490;28;20356;-76
2021/01/26 01:20:47;;;;;;;;;;;1.20;92.50;;;;;;5019176;28;19927;-76
2021/01/26 01:23:13;;;;;;;;;;;1.20;92.60;;;;;;5032045;28;19904;-76
2021/01/26 01:25:38;;;;;;;;;;;1.10;92.50;;;;;;5015277;28;20012;-76
2021/01/26 01:28:04;;;;;;;;;;;1.20;91.90;;;;;;5030911;28;19908;-77
2021/01/26 01:30:32;;;;;;;;;;;1.20;92.50;;;;;;5033411;28;19959;-76
2021/01/26 01:32:58;;;;;;;;;;;1.10;92.90;;;;;;5034419;28;19975;-76
2021/01/26 01:35:24;;;;;;;;;;;1.10;92.30;;;;;;5038593;28;19904;-76
2021/01/26 01:37:50;;;;;;;;;;;1.10;92.30;;;;;;5036877;28;19913;-76
2021/01/26 01:40:33;;;;;;;;;;;1.10;92.60;;;;;;5035819;28;19913;-76
2021/01/26 01:42:58;;;;;;;;;;;1.10;92.90;;;;;;5035199;28;19913;-76
2021/01/26 01:45:24;;;;;;;;;;;1.10;93.10;;;;;;5016313;28;19927;-76
2021/01/26 01:48:06;;;;;;;;;;;1.10;92.70;;;;;;5034868;28;19919;-76
2021/01/26 01:50:34;;;;;;;;;;;1.00;92.80;;;;;;5019323;28;19908;-76
2021/01/26 01:53:02;;;;;;;;;;;1.00;93.10;;;;;;5015370;28;19948;-76
2021/01/26 01:55:28;;;;;;;;;;;1.00;93.00;;;;;;5031932;28;19920;-77
2021/01/26 01:57:56;;;;;;;;;;;1.00;93.00;;;;;;5015211;28;20000;-76
2021/01/26 02:00:22;;;;;;;;;;;1.00;92.90;;;;;;5036444;28;20503;-76
2021/01/26 02:03:06;;;;;;;;;;;0.90;93.10;;;;;;5025702;28;19917;-76
2021/01/26 02:05:32;;;;;;;;;;;1.00;93.00;;;;;;5022985;28;19912;-76
2021/01/26 02:08:00;;;;;;;;;;;0.90;92.90;;;;;;5033750;28;19913;-76
2021/01/26 02:10:25;;;;;;;;;;;1.00;92.80;;;;;;5034422;28;20003;-76
2021/01/26 02:12:51;;;;;;;;;;;1.00;92.50;;;;;;5032656;28;20385;-76
2021/01/26 02:15:17;;;;;;;;;;;1.00;92.80;;;;;;5043441;28;19909;-76
2021/01/26 02:17:42;;;;;;;;;;;1.00;92.90;;;;;;5032694;28;19951;-76
2021/01/26 02:20:17;;;;;;;;;;;1.00;93.20;;;;;;5033972;28;20292;-76
2021/01/26 02:22:51;;;;;;;;;;;0.90;92.80;;;;;;5035844;28;19909;-76
2021/01/26 02:25:29;;;;;;;;;;;0.90;92.70;;;;;;5035691;28;19909;-76
2021/01/26 02:28:04;;;;;;;;;;;0.90;92.60;;;;;;5063740;22;20367;-72
2021/01/26 02:30:29;;;;;;;;;;;0.90;92.80;;;;;;5043895;28;20319;-71
2021/01/26 02:33:14;;;;;;;;;;;0.90;93.00;;;;;;5043651;28;20012;-71
2021/01/26 02:35:56;;;;;;;;;;;0.90;93.00;;;;;;5043178;28;20487;-71
2021/01/26 02:38:22;;;;;;;;;;;0.90;93.00;;;;;;5023013;28;20396;-72
2021/01/26 02:40:51;;;;;;;;;;;1.00;92.80;;;;;;5020555;28;19917;-71
2021/01/26 02:43:40;;;;;;;;;;;1.00;92.90;;;;;;5027443;28;20304;-72
2021/01/26 02:46:09;;;;;;;;;;;1.00;93.00;;;;;;5024381;28;20388;-72
2021/01/26 02:48:39;;;;;;;;;;;1.00;92.90;;;;;;5026523;28;19951;-71
2021/01/26 02:51:07;;;;;;;;;;;1.00;93.00;;;;;;5011132;28;19908;-71
2021/01/26 02:53:44;;;;;;;;;;;1.10;92.90;;;;;;5027984;28;19963;-71
2021/01/26 02:56:19;;;;;;;;;;;1.10;93.00;;;;;;5043000;28;19920;-71
2021/01/26 02:58:48;;;;;;;;;;;1.10;92.90;;;;;;5008031;28;20378;-71
2021/01/26 03:01:14;;;;;;;;;;;1.10;93.00;;;;;;5028427;28;19967;-71
2021/01/26 03:03:46;;;;;;;;;;;1.10;92.90;;;;;;5026166;28;20368;-71
2021/01/26 03:06:17;;;;;;;;;;;1.10;92.90;;;;;;5029352;28;19921;-71
2021/01/26 03:09:00;;;;;;;;;;;1.20;92.90;;;;;;5022271;28;19912;-71
2021/01/26 03:11:52;;;;;;;;;;;1.20;92.70;;;;;;5023369;28;19909;-72
2021/01/26 03:14:38;;;;;;;;;;;1.30;92.70;;;;;;5020493;28;20024;-71
2021/01/26 03:17:31;;;;;;;;;;;1.30;92.40;;;;;;5022712;28;19913;-71
2021/01/26 03:19:58;;;;;;;;;;;1.40;92.50;;;;;;5024820;28;19909;-71
2021/01/26 03:22:25;;;;;;;;;;;1.30;92.50;;;;;;5043017;28;20400;-71
2021/01/26 03:24:52;;;;;;;;;;;1.30;92.70;;;;;;5028525;28;19952;-71
2021/01/26 03:27:19;;;;;;;;;;;1.30;92.60;;;;;;5020538;28;19920;-71
2021/01/26 03:29:46;;;;;;;;;;;1.30;92.60;;;;;;5024489;28;20509;-73
2021/01/26 03:32:15;;;;;;;;;;;1.30;92.70;;;;;;5041638;28;19995;-71
2021/01/26 03:34:41;;;;;;;;;;;1.30;92.70;;;;;;5022625;28;20012;-71
2021/01/26 03:37:07;;;;;;;;;;;1.40;92.80;;;;;;5026122;28;19993;-71
2021/01/26 03:39:32;;;;;;;;;;;1.40;92.80;;;;;;5023995;28;19956;-71
2021/01/26 03:41:59;;;;;;;;;;;1.40;92.80;;;;;;5021424;28;20254;-70
2021/01/26 03:44:24;;;;;;;;;;;1.40;92.70;;;;;;5028264;28;20407;-71
2021/01/26 03:46:50;;;;;;;;;;;1.40;92.60;;;;;;5025186;28;20032;-71
2021/01/26 03:49:25;;;;;;;;;;;1.40;92.60;;;;;;5026968;28;20375;-71
2021/01/26 03:52:09;;;;;;;;;;;1.50;92.70;;;;;;5028783;28;19913;-71
2021/01/26 03:54:43;;;;;;;;;;;1.50;92.80;;;;;;5025040;28;19918;-71
2021/01/26 03:57:27;;;;;;;;;;;1.40;92.70;;;;;;5029607;28;19952;-71
2021/01/26 04:00:07;;;;;;;;;;;1.50;92.70;;;;;;5028345;28;20379;-71
2021/01/26 04:02:38;;;;;;;;;;;1.40;92.60;;;;;;5025373;28;19992;-71
2021/01/26 04:05:07;;;;;;;;;;;1.40;92.80;;;;;;5029474;28;19909;-71
2021/01/26 04:07:38;;;;;;;;;;;1.40;92.70;;;;;;5023879;28;19920;-71
2021/01/26 04:10:13;;;;;;;;;;;1.50;92.70;;;;;;5026606;28;19920;-71
2021/01/26 04:12:42;;;;;;;;;;;1.50;92.60;;;;;;5025291;28;20276;-70
2021/01/26 04:15:09;;;;;;;;;;;1.50;92.70;;;;;;5040836;28;21503;-70
2021/01/26 04:17:37;;;;;;;;;;;1.50;92.50;;;;;;5024270;28;20391;-70
2021/01/26 04:20:02;;;;;;;;;;;1.50;92.70;;;;;;5022579;28;19987;-70
2021/01/26 04:22:28;;;;;;;;;;;1.50;92.70;;;;;;5029907;28;19917;-71
2021/01/26 04:24:54;;;;;;;;;;;1.50;92.50;;;;;;5048212;28;19920;-71
2021/01/26 04:27:21;;;;;;;;;;;1.50;92.70;;;;;;5028526;28;20541;-70
2021/01/26 04:29:47;;;;;;;;;;;1.50;92.70;;;;;;5022832;28;19916;-70
2021/01/26 04:32:15;;;;;;;;;;;1.50;92.80;;;;;;5006051;28;19909;-71
2021/01/26 04:34:40;;;;;;;;;;;1.50;92.70;;;;;;5025545;28;19943;-71
2021/01/26 04:37:06;;;;;;;;;;;1.50;92.60;;;;;;5026698;28;19914;-71
2021/01/26 04:39:31;;;;;;;;;;;1.50;92.70;;;;;;5023299;28;19966;-71
2021/01/26 04:41:57;;;;;;;;;;;1.60;92.70;;;;;;5029422;28;19955;-70
2021/01/26 04:44:26;;;;;;;;;;;1.60;92.60;;;;;;5028848;28;19909;-70
2021/01/26 04:47:10;;;;;;;;;;;1.50;92.70;;;;;;5024945;28;19913;-71
2021/01/26 04:49:54;;;;;;;;;;;1.60;92.60;;;;;;5027628;28;20368;-71
2021/01/26 04:52:26;;;;;;;;;;;1.60;92.70;;;;;;5026006;28;19962;-72
2021/01/26 04:54:57;;;;;;;;;;;1.60;92.70;;;;;;5031221;28;19913;-71
2021/01/26 04:57:26;;;;;;;;;;;1.60;92.80;;;;;;5024167;28;19909;-72
2021/01/26 05:00:11;;;;;;;;;;;1.60;92.80;;;;;;5026081;28;20265;-72
2021/01/26 05:02:44;;;;;;;;;;;1.60;92.90;;;;;;5020726;28;19909;-72
2021/01/26 05:05:12;;;;;;;;;;;1.60;92.90;;;;;;5022951;28;19916;-72
2021/01/26 05:07:43;;;;;;;;;;;1.50;93.10;;;;;;5039499;28;19935;-72
2021/01/26 05:10:27;;;;;;;;;;;1.50;92.80;;;;;;5027438;28;19913;-72
2021/01/26 05:13:02;;;;;;;;;;;1.50;92.90;;;;;;5040256;28;19920;-71
2021/01/26 05:15:29;;;;;;;;;;;1.50;93.10;;;;;;5025283;28;20000;-71
2021/01/26 05:18:06;;;;;;;;;;;1.50;92.70;;;;;;5022429;28;19954;-71
2021/01/26 05:20:43;;;;;;;;;;;1.50;92.60;;;;;;5020341;28;19917;-71
2021/01/26 05:23:08;;;;;;;;;;;1.50;92.40;;;;;;5020508;28;20009;-71
2021/01/26 05:25:34;;;;;;;;;;;1.40;92.80;;;;;;5019731;28;20008;-71
2021/01/26 05:27:59;;;;;;;;;;;1.40;92.90;;;;;;5040935;28;19920;-72
2021/01/26 05:30:29;;;;;;;;;;;1.40;92.90;;;;;;5021316;28;19917;-72
2021/01/26 05:32:55;;;;;;;;;;;1.40;92.70;;;;;;5038467;28;19964;-71
2021/01/26 05:35:22;;;;;;;;;;;1.30;93.10;;;;;;5024659;28;19916;-71
2021/01/26 05:37:49;;;;;;;;;;;1.40;92.40;;;;;;5041035;28;19913;-71
2021/01/26 05:40:23;;;;;;;;;;;1.40;92.80;;;;;;5025093;28;19940;-70
2021/01/26 05:42:51;;;;;;;;;;;1.30;92.70;;;;;;5037623;28;20012;-70
2021/01/26 05:45:25;;;;;;;;;;;1.30;92.70;;;;;;5021842;28;19919;-71
2021/01/26 05:48:17;;;;;;;;;;;1.30;92.90;;;;;;5009446;28;20589;-70
2021/01/26 05:50:44;;;;;;;;;;;1.20;93.20;;;;;;5020134;28;19916;-71
2021/01/26 05:53:30;;;;;;;;;;;1.20;92.70;;;;;;5022493;28;20276;-71
2021/01/26 05:56:10;;;;;;;;;;;1.20;93.10;;;;;;5025693;28;19909;-72
2021/01/26 05:58:36;;;;;;;;;;;1.10;93.20;;;;;;5024511;28;19963;-71
2021/01/26 06:01:03;;;;;;;;;;;1.10;93.10;;;;;;5024514;28;19920;-71
2021/01/26 06:03:29;;;;;;;;;;;1.10;93.10;;;;;;5024988;28;19956;-72
2021/01/26 06:05:58;;;;;;;;;;;1.10;93.30;;;;;;5021347;28;19958;-72
2021/01/26 06:08:23;;;;;;;;;;;1.10;93.40;;;;;;5005085;28;19948;-72
2021/01/26 06:10:49;;;;;;;;;;;1.10;93.30;;;;;;5025876;28;20443;-72
2021/01/26 06:13:22;;;;;;;;;;;1.10;93.30;;;;;;5025133;28;20008;-71
2021/01/26 06:15:48;;;;;;;;;;;1.00;93.30;;;;;;5026041;28;19920;-72
2021/01/26 06:18:18;;;;;;;;;;;1.00;93.30;;;;;;5023312;28;19909;-72
2021/01/26 06:21:00;;;;;;;;;;;1.10;92.80;;;;;;5040162;28;19952;-72
2021/01/26 06:23:27;;;;;;;;;;;1.10;92.90;;;;;;5030951;28;20296;-71
2021/01/26 06:25:55;;;;;;;;;;;1.10;93.00;;;;;;5032093;28;20357;-72
2021/01/26 06:28:24;;;;;;;;;;;1.10;92.90;;;;;;5027567;28;19946;-72
2021/01/26 06:30:49;;;;;;;;;;;1.00;92.80;;;;;;5025293;28;19972;-72
2021/01/26 06:33:15;;;;;;;;;;;1.00;93.10;;;;;;5023119;28;19959;-72
2021/01/26 06:35:48;;;;;;;;;;;1.00;93.30;;;;;;5023154;28;20384;-72
2021/01/26 06:38:37;;;;;;;;;;;1.00;93.20;;;;;;5024693;28;19909;-72
2021/01/26 06:41:32;;;;;;;;;;;0.90;93.20;;;;;;5019819;28;19913;-72
2021/01/26 06:43:58;;;;;;;;;;;0.90;93.40;;;;;;5027774;28;19949;-72
2021/01/26 06:46:31;;;;;;;;;;;1.00;93.40;;;;;;5029980;28;21816;-73
2021/01/26 06:48:56;;;;;;;;;;;0.90;93.20;;;;;;5033449;28;19909;-72
2021/01/26 06:51:31;;;;;;;;;;;0.90;93.30;;;;;;5031897;28;19936;-72
2021/01/26 06:54:06;;;;;;;;;;;0.90;93.40;;;;;;5045094;28;19905;-72
2021/01/26 06:56:38;;;;;;;;;;;0.90;93.50;;;;;;5046365;28;20400;-73
2021/01/26 06:59:10;;;;;;;;;;;0.80;93.40;;;;;;5022358;28;19905;-73
2021/01/26 07:01:47;;;;;;;;;;;0.80;93.60;;;;;;5033067;28;20310;-73
2021/01/26 07:04:25;;;;;;;;;;;0.80;93.60;;;;;;5030318;28;20003;-73
2021/01/26 07:07:14;;;;;;;;;;;0.80;93.70;;;;;;5030198;28;19972;-74
2021/01/26 07:09:58;;;;;;;;;;;0.80;93.70;;;;;;4999996;28;19916;-74
2021/01/26 07:12:40;;;;;;;;;;;0.80;93.70;;;;;;5043928;28;19909;-74
2021/01/26 07:15:19;;;;;;;;;;;0.70;93.60;;;;;;5033095;28;19955;-73
2021/01/26 07:17:52;;;;;;;;;;;0.70;93.80;;;;;;5048393;28;19909;-74
2021/01/26 07:20:17;;;;;;;;;;;0.60;93.80;;;;;;5030490;28;19999;-73
2021/01/26 07:22:43;;;;;;;;;;;0.60;94.00;;;;;;5030879;28;19949;-74
2021/01/26 07:25:23;;;;;;;;;;;0.60;94.00;;;;;;5031912;28;20004;-75
2021/01/26 07:27:49;;;;;;;;;;;0.60;94.00;;;;;;5034164;28;19917;-73
2021/01/26 07:30:50;;;;;;;;;;;0.70;93.90;;;;;;5033521;28;20008;-75
2021/01/26 07:33:15;;;;;;;;;;;0.70;94.20;;;;;;5032503;28;20010;-75
2021/01/26 07:36:05;;;;;;;;;;;0.70;93.80;;;;;;5035048;28;19975;-74
2021/01/26 07:38:41;;;;;;;;;;;0.70;93.90;;;;;;5046618;28;19913;-75
2021/01/26 07:41:09;;;;;;;;;;;0.70;93.70;;;;;;5031112;28;19992;-77
2021/01/26 07:43:46;;;;;;;;;;;0.70;93.90;;;;;;5016744;28;19909;-76
2021/01/26 07:46:20;;;;;;;;;;;0.80;93.80;;;;;;5031600;28;19916;-75
2021/01/26 07:49:01;;;;;;;;;;;0.80;93.90;;;;;;5039645;28;20256;-74
2021/01/26 07:51:33;;;;;;;;;;;0.80;93.90;;;;;;5027600;28;19909;-74
2021/01/26 07:53:59;;;;;;;;;;;0.80;93.90;;;;;;5033746;28;19905;-74
2021/01/26 07:56:36;;;;;;;;;;;0.80;93.90;;;;;;5034982;28;19909;-73
2021/01/26 07:59:03;;;;;;;;;;;0.80;94.00;;;;;;5029085;28;19909;-73
2021/01/26 08:01:33;;;;;;;;;;;0.80;94.00;;;;;;5042772;28;20487;-74
2021/01/26 08:04:03;;;;;;;;;;;0.90;93.90;;;;;;5028572;28;19955;-74
2021/01/26 08:06:34;;;;;;;;;;;0.90;93.90;;;;;;5037356;28;19913;-74
2021/01/26 08:09:00;;;;;;;;;;;0.90;93.80;;;;;;5024962;28;20327;-74
2021/01/26 08:11:27;;;;;;;;;;;1.00;93.70;;;;;;5041127;28;19912;-73
2021/01/26 08:14:08;;;;;;;;;;;1.00;93.60;;;;;;5030174;28;19963;-75
2021/01/26 08:16:42;;;;;;;;;;;1.00;93.60;;;;;;5015704;28;20331;-74
2021/01/26 08:19:23;;;;;;;;;;;1.00;93.60;;;;;;5021789;28;19905;-74
2021/01/26 08:21:49;;;;;;;;;;;1.00;93.70;;;;;;5045484;28;19909;-74
2021/01/26 08:24:27;;;;;;;;;;;1.00;93.70;;;;;;5033991;28;20322;-74
2021/01/26 08:26:55;;;;;;;;;;;1.10;93.60;;;;;;5054626;22;19924;-72
2021/01/26 08:29:38;;;;;;;;;;;1.10;93.60;;;;;;5056955;28;20363;-72
2021/01/26 08:32:22;;;;;;;;;;;1.10;93.50;;;;;;5074074;28;19909;-75
2021/01/26 08:34:57;;;;;;;;;;;1.20;93.40;;;;;;5073399;28;20002;-74
2021/01/26 08:37:24;;;;;;;;;;;1.20;93.70;;;;;;5076139;28;19915;-72
2021/01/26 08:39:52;;;;;;;;;;;1.20;93.40;;;;;;5073566;28;19933;-74
2021/01/26 08:42:36;;;;;;;;;;;1.20;93.30;;;;;;5089707;28;20381;-73
2021/01/26 08:45:02;;;;;;;;;;;1.30;93.30;;;;;;5072621;28;20381;-73
2021/01/26 08:47:43;;;;;;;;;;;1.20;93.40;;;;;;5056344;28;20003;-72
2021/01/26 08:50:18;;;;;;;;;;;1.20;93.60;;;;;;5057720;28;20359;-72
2021/01/26 08:52:43;;;;;;;;;;;1.20;93.70;;;;;;5077816;28;19961;-72
2021/01/26 08:55:29;;;;;;;;;;;1.20;93.60;;;;;;5075335;28;19916;-72
2021/01/26 08:57:54;;;;;;;;;;;1.20;93.80;;;;;;5081374;28;19908;-73
2021/01/26 09:00:26;;;;;;;;;;;1.30;93.90;;;;;;5081330;28;19916;-73
2021/01/26 09:02:52;;;;;;;;;;;1.40;93.70;;;;;;5072263;28;19912;-72
2021/01/26 09:05:36;;;;;;;;;;;1.50;93.70;;;;;;5078374;28;20327;-73
2021/01/26 09:08:05;;;;;;;;;;;1.60;93.50;;;;;;5055591;28;20395;-73
2021/01/26 09:10:33;;;;;;;;;;;1.50;93.40;;;;;;5076203;28;19913;-74
2021/01/26 09:13:11;;;;;;;;;;;1.50;93.50;;;;;;5076607;28;19908;-75
2021/01/26 09:15:43;;;;;;;;;;;1.50;93.60;;;;;;5074364;28;19908;-73
2021/01/26 09:18:09;;;;;;;;;;;1.60;93.80;;;;;;5073089;28;20011;-73
2021/01/26 09:20:35;;;;;;;;;;;1.60;93.90;;;;;;5073404;28;20002;-74
2021/01/26 09:23:05;;;;;;;;;;;1.60;93.70;;;;;;5076819;28;19958;-74
2021/01/26 09:25:36;;;;;;;;;;;1.70;93.80;;;;;;5072411;28;20534;-73
2021/01/26 09:28:04;;;;;;;;;;;1.70;93.80;;;;;;5055245;28;19924;-73
2021/01/26 09:30:30;;;;;;;;;;;1.70;93.80;;;;;;5078549;28;20473;-75
2021/01/26 09:32:55;;;;;;;;;;;1.80;93.80;;;;;;5057716;28;20279;-73
2021/01/26 09:35:42;;;;;;;;;;;1.80;93.70;;;;;;5073892;28;19923;-72
2021/01/26 09:38:13;;;;;;;;;;;1.80;93.70;;;;;;5082586;28;19920;-74
2021/01/26 09:40:40;;;;;;;;;;;1.90;93.60;;;;;;5053527;28;19908;-74
2021/01/26 09:43:11;;;;;;;;;;;1.90;93.70;;;;;;5087336;28;20271;-72
2021/01/26 09:45:37;;;;;;;;;;;1.90;93.60;;;;;;5060199;28;20260;-73
2021/01/26 09:48:03;;;;;;;;;;;2.00;93.60;;;;;;5072947;28;20023;-73
2021/01/26 09:50:29;;;;;;;;;;;2.00;93.60;;;;;;5073782;28;20379;-72
2021/01/26 09:52:56;;;;;;;;;;;2.10;93.50;;;;;;5059206;28;20757;-73
2021/01/26 09:55:21;;;;;;;;;;;2.10;93.30;;;;;;5077405;28;19904;-73
2021/01/26 09:57:47;;;;;;;;;;;2.20;93.20;;;;;;5057239;28;20053;-74
2021/01/26 10:00:14;;;;;;;;;;;2.30;93.00;;;;;;5058996;28;20004;-72
2021/01/26 10:02:40;;;;;;;;;;;2.40;92.90;;;;;;5073957;28;19994;-72
2021/01/26 10:05:08;;;;;;;;;;;2.40;93.00;;;;;;5077181;28;19919;-72
2021/01/26 10:07:33;;;;;;;;;;;2.40;92.80;;;;;;5063706;28;19916;-73
2021/01/26 10:10:17;;;;;;;;;;;2.40;93.00;;;;;;5071964;28;19905;-72
2021/01/26 10:12:45;;;;;;;;;;;2.40;93.10;;;;;;5055401;28;19979;-72
2021/01/26 10:15:18;;;;;;;;;;;2.40;92.90;;;;;;5072194;28;19916;-73
2021/01/26 10:17:49;;;;;;;;;;;2.50;93.10;;;;;;5072657;28;19990;-73
2021/01/26 10:20:25;;;;;;;;;;;2.50;92.90;;;;;;5072009;28;19904;-73
2021/01/26 10:23:00;;;;;;;;;;;2.60;92.70;;;;;;5056218;28;19908;-72
2021/01/26 10:25:26;;;;;;;;;;;2.60;92.70;;;;;;5063036;28;20364;-73
2021/01/26 10:27:52;;;;;;;;;;;2.60;92.70;;;;;;5078389;28;19920;-72
2021/01/26 10:30:26;;;;;;;;;;;2.70;92.50;;;;;;5075413;28;20283;-74
2021/01/26 10:32:54;;;;;;;;;;;2.70;92.50;;;;;;5054926;28;19940;-71
2021/01/26 10:35:42;;;;;;;;;;;2.70;92.40;;;;;;5078766;28;19908;-73
2021/01/26 10:38:27;;;;;;;;;;;2.70;92.40;;;;;;5074485;28;19919;-73
2021/01/26 10:41:08;;;;;;;;;;;2.70;92.50;;;;;;5066601;28;19912;-73
2021/01/26 10:43:33;;;;;;;;;;;2.70;92.60;;;;;;5052758;28;19999;-73
2021/01/26 10:45:59;;;;;;;;;;;2.70;92.70;;;;;;5073606;28;19995;-73
2021/01/26 10:48:24;;;;;;;;;;;2.70;92.70;;;;;;5075397;28;20347;-74
2021/01/26 10:50:51;;;;;;;;;;;2.70;92.70;;;;;;5073880;28;20434;-74
2021/01/26 10:53:32;;;;;;;;;;;2.80;92.60;;;;;;5074403;28;19915;-73
2021/01/26 10:55:58;;;;;;;;;;;2.80;92.60;;;;;;5075293;28;20424;-72
2021/01/26 10:58:23;;;;;;;;;;;2.80;92.50;;;;;;5061794;28;19908;-73
2021/01/26 11:00:50;;;;;;;;;;;2.70;92.60;;;;;;5055100;28;19916;-73
2021/01/26 11:03:16;;;;;;;;;;;2.70;92.60;;;;;;5058223;28;19909;-75
2021/01/26 11:05:42;;;;;;;;;;;2.70;92.60;;;;;;5080661;28;19912;-74
2021/01/26 11:08:08;;;;;;;;;;;2.80;92.30;;;;;;5072260;28;19916;-74
2021/01/26 11:10:34;;;;;;;;;;;2.80;92.30;;;;;;5076117;28;19905;-74
2021/01/26 11:13:00;;;;;;;;;;;2.80;92.40;;;;;;5062276;28;19916;-74
2021/01/26 11:15:27;;;;;;;;;;;2.80;92.40;;;;;;5084508;28;19908;-73
2021/01/26 11:17:53;;;;;;;;;;;2.90;92.50;;;;;;5087168;28;20145;-76
2021/01/26 11:20:18;;;;;;;;;;;2.90;92.40;;;;;;5074512;28;20579;-75
2021/01/26 11:22:44;;;;;;;;;;;3.10;92.10;;;;;;5078329;28;19951;-75
2021/01/26 11:25:10;;;;;;;;;;;3.10;92.10;;;;;;5076135;28;19944;-74
2021/01/26 11:27:36;;;;;;;;;;;3.10;92.10;;;;;;5076188;28;19935;-75
2021/01/26 11:30:03;;;;;;;;;;;3.10;92.20;;;;;;5073646;28;20371;-76
2021/01/26 11:32:29;;;;;;;;;;;3.10;92.20;;;;;;5076488;28;20417;-76
2021/01/26 11:34:54;;;;;;;;;;;3.10;92.30;;;;;;5061741;28;19988;-75
2021/01/26 11:37:20;;;;;;;;;;;3.20;92.30;;;;;;5075218;28;19908;-75
2021/01/26 11:39:45;;;;;;;;;;;3.20;92.10;;;;;;5084413;28;19912;-74
2021/01/26 11:42:11;;;;;;;;;;;3.40;91.80;;;;;;5060270;28;19912;-74
2021/01/26 11:44:37;;;;;;;;;;;3.40;92.00;;;;;;5067435;28;19969;-77
2021/01/26 11:47:03;;;;;;;;;;;3.50;91.70;;;;;;5083286;28;20182;-78
2021/01/26 11:49:28;;;;;;;;;;;3.60;91.70;;;;;;5079718;28;19908;-75
2021/01/26 11:51:55;;;;;;;;;;;3.70;91.50;;;;;;5058682;28;19908;-73
2021/01/26 11:54:20;;;;;;;;;;;3.70;91.30;;;;;;5058180;28;20011;-74
2021/01/26 11:56:46;;;;;;;;;;;3.70;91.40;;;;;;5078464;28;20384;-74
2021/01/26 11:59:11;;;;;;;;;;;3.80;91.60;;;;;;5078517;28;19915;-75
2021/01/26 12:01:37;;;;;;;;;;;3.90;91.30;;;;;;5075056;28;19908;-76
2021/01/26 12:04:03;;;;;;;;;;;3.90;91.30;;;;;;5076551;28;19908;-76
2021/01/26 12:06:29;;;;;;;;;;;3.90;91.30;;;;;;5055328;28;19915;-74
2021/01/26 12:08:55;;;;;;;;;;;4.00;91.20;;;;;;5063648;28;20322;-75
2021/01/26 12:11:20;;;;;;;;;;;4.00;91.20;;;;;;5074518;28;19915;-74
2021/01/26 12:13:46;;;;;;;;;;;4.00;91.20;;;;;;5073776;28;19913;-75
2021/01/26 12:16:11;;;;;;;;;;;4.00;91.40;;;;;;5056784;28;19970;-75
2021/01/26 12:18:37;;;;;;;;;;;4.00;91.10;;;;;;5079387;28;19912;-75
2021/01/26 12:21:03;;;;;;;;;;;4.00;90.90;;;;;;5068560;28;19922;-76
2021/01/26 12:23:28;;;;;;;;;;;4.00;91.00;;;;;;5057203;28;19919;-75
2021/01/26 12:25:57;;;;;;;;;;;4.00;91.20;;;;;;5058773;28;19948;-75
2021/01/26 12:28:23;;;;;;;;;;;4.10;91.10;;;;;;5073938;28;19923;-76
2021/01/26 12:30:49;;;;;;;;;;;4.10;91.00;;;;;;5075337;28;19916;-75
2021/01/26 12:33:14;;;;;;;;;;;4.10;90.70;;;;;;5082185;28;19912;-75
2021/01/26 12:35:40;;;;;;;;;;;4.10;90.80;;;;;;5076004;28;19908;-75
2021/01/26 12:38:06;;;;;;;;;;;4.00;91.00;;;;;;5078337;28;19912;-75
2021/01/26 12:40:32;;;;;;;;;;;4.10;90.80;;;;;;5061347;28;19920;-74
2021/01/26 12:42:58;;;;;;;;;;;4.10;90.90;;;;;;5076853;28;19918;-77
2021/01/26 12:45:26;;;;;;;;;;;4.30;92.90;;;;;;5057525;28;19954;-76
2021/01/26 12:47:54;;;;;;;;;;;4.50;90.60;;;;;;5057174;28;20425;-75
2021/01/26 12:50:25;;;;;;;;;;;4.50;90.40;;;;;;5076897;28;19908;-75
2021/01/26 12:52:51;;;;;;;;;;;4.50;90.30;;;;;;5065342;28;19904;-75
2021/01/26 12:55:16;;;;;;;;;;;4.50;90.20;;;;;;5071557;28;19909;-74
2021/01/26 12:57:42;;;;;;;;;;;4.50;89.90;;;;;;5071214;28;19916;-75
2021/01/26 13:00:10;;;;;;;;;;;4.50;90.20;;;;;;5053736;28;20319;-76
2021/01/26 13:02:36;;;;;;;;;;;4.50;89.70;;;;;;5071538;28;19951;-73
2021/01/26 13:05:03;;;;;;;;;;;4.50;89.80;;;;;;5072920;28;19934;-74
2021/01/26 13:07:28;;;;;;;;;;;4.40;89.60;;;;;;5075552;28;19920;-77
2021/01/26 13:09:55;;;;;;;;;;;4.40;89.60;;;;;;5054317;28;20452;-77
2021/01/26 13:12:20;;;;;;;;;;;4.40;89.80;;;;;;5059020;28;20011;-75
2021/01/26 13:14:46;;;;;;;;;;;4.40;89.60;;;;;;5085199;28;20068;-76
2021/01/26 13:17:12;;;;;;;;;;;4.40;89.30;;;;;;5057926;28;19927;-76
2021/01/26 13:19:37;;;;;;;;;;;4.30;89.60;;;;;;5067765;28;19927;-74
2021/01/26 13:22:03;;;;;;;;;;;4.30;90.10;;;;;;5057509;28;20072;-74
2021/01/26 13:24:29;;;;;;;;;;;4.30;90.10;;;;;;5055894;28;19908;-74
2021/01/26 13:26:55;;;;;;;;;;;4.30;90.00;;;;;;5058198;28;19923;-75
2021/01/26 13:29:20;;;;;;;;;;;4.30;90.10;;;;;;5074273;28;20351;-76
2021/01/26 13:31:47;;;;;;;;;;;4.40;90.20;;;;;;5086021;28;19919;-74
2021/01/26 13:34:12;;;;;;;;;;;4.40;89.80;;;;;;5102481;28;19917;-78
2021/01/26 13:36:38;;;;;;;;;;;4.50;90.00;;;;;;5057198;28;19911;-73
2021/01/26 13:39:03;;;;;;;;;;;4.70;90.10;;;;;;5076230;28;19912;-74
2021/01/26 13:41:29;;;;;;;;;;;4.70;89.50;;;;;;5055930;28;20004;-73
2021/01/26 13:43:55;;;;;;;;;;;4.60;89.80;;;;;;5068131;28;19912;-73
2021/01/26 13:46:20;;;;;;;;;;;4.50;90.40;;;;;;5052126;28;19912;-75
2021/01/26 13:48:46;;;;;;;;;;;4.40;90.90;;;;;;5074256;28;19918;-74
2021/01/26 13:51:12;;;;;;;;;;;4.20;91.20;;;;;;5057189;28;20276;-73
2021/01/26 13:53:38;;;;;;;;;;;4.10;91.30;;;;;;5073254;28;19916;-76
2021/01/26 13:56:04;;;;;;;;;;;3.90;91.50;;;;;;5069867;28;19912;-73
2021/01/26 13:58:29;;;;;;;;;;;3.80;91.80;;;;;;5052642;28;19908;-75
2021/01/26 14:00:55;;;;;;;;;;;3.70;92.10;;;;;;5072969;28;19915;-74
2021/01/26 14:03:20;;;;;;;;;;;3.60;92.30;;;;;;5070688;28;19908;-75
2021/01/26 14:05:46;;;;;;;;;;;3.60;92.40;;;;;;5071095;28;20010;-74
2021/01/26 14:08:12;;;;;;;;;;;3.60;92.50;;;;;;5073850;28;19921;-74
2021/01/26 14:10:38;;;;;;;;;;;3.60;92.50;;;;;;5070701;28;19908;-74
2021/01/26 14:13:04;;;;;;;;;;;3.60;92.50;;;;;;5070623;28;19908;-76
2021/01/26 14:15:30;;;;;;;;;;;3.50;92.60;;;;;;5077060;28;20379;-74
2021/01/26 14:17:56;;;;;;;;;;;3.50;92.70;;;;;;5088538;28;19904;-73
2021/01/26 14:20:22;;;;;;;;;;;3.40;92.80;;;;;;5080364;28;19917;-73
2021/01/26 14:22:47;;;;;;;;;;;3.40;92.90;;;;;;5074914;28;19914;-73
2021/01/26 14:25:14;;;;;;;;;;;3.40;93.10;;;;;;5071414;28;20306;-71
2021/01/26 14:27:39;;;;;;;;;;;3.40;93.20;;;;;;5089255;22;20011;-73
2021/01/26 14:30:06;;;;;;;;;;;3.40;93.20;;;;;;5098244;28;20166;-73
2021/01/26 14:32:32;;;;;;;;;;;3.40;93.30;;;;;;5096528;28;19912;-74
2021/01/26 14:34:57;;;;;;;;;;;3.30;93.30;;;;;;5076473;28;19923;-74
2021/01/26 14:37:23;;;;;;;;;;;3.40;93.40;;;;;;5076964;28;20421;-72
2021/01/26 14:39:48;;;;;;;;;;;3.40;93.30;;;;;;5062175;28;19908;-75
2021/01/26 14:42:14;;;;;;;;;;;3.40;93.30;;;;;;5099623;28;19920;-75
2021/01/26 14:44:43;;;;;;;;;;;3.40;93.30;;;;;;5069043;28;19908;-74